Time;durP1;ratioP1;P1;durP2;ratioP2;P2;SDS_P1;SDS_P2;PMS_P1;PMS_P2;Temp;Humidity;BMP_temperature;BMP_pressure;BME280_temperature;BME280_humidity;BME280_pressure;Samples;Min_cycle;Max_cycle;Signal;HPM_P1;HPM_P2
2024/04/06 00:00:32;;;;;;;3.75;1.02;;;10.10;95.70;;;;;;5014179;28;20458;-66
2024/04/06 00:02:57;;;;;;;1.50;0.70;;;10.00;95.80;;;;;;5016134;28;20384;-66
2024/04/06 00:05:23;;;;;;;2.72;0.93;;;10.00;96.20;;;;;;5020703;28;20076;-66
2024/04/06 00:07:49;;;;;;;2.20;1.20;;;10.00;96.30;;;;;;5015594;28;20060;-66
2024/04/06 00:10:15;;;;;;;2.22;1.40;;;10.20;96.40;;;;;;5014324;28;20033;-66
2024/04/06 00:12:40;;;;;;;1.27;0.95;;;10.10;96.30;;;;;;5010641;28;20186;-66
2024/04/06 00:15:06;;;;;;;2.70;0.98;;;10.20;96.30;;;;;;5013142;28;20064;-66
2024/04/06 00:17:32;;;;;;;4.78;1.35;;;10.20;96.20;;;;;;5016640;28;20033;-66
2024/04/06 00:19:58;;;;;;;4.60;1.90;;;10.30;96.20;;;;;;5012574;28;20026;-66
2024/04/06 00:22:23;;;;;;;1.38;1.10;;;10.40;96.30;;;;;;5011189;28;20095;-66
2024/04/06 00:24:49;;;;;;;3.25;1.13;;;10.30;96.20;;;;;;5012643;28;20144;-66
2024/04/06 00:27:14;;;;;;;3.42;1.15;;;10.30;96.30;;;;;;5013214;28;20124;-66
2024/04/06 00:29:39;;;;;;;2.78;1.13;;;10.30;96.70;;;;;;5009233;28;20045;-66
2024/04/06 00:32:05;;;;;;;1.90;1.20;;;10.20;96.50;;;;;;5014355;28;20465;-66
2024/04/06 00:34:31;;;;;;;1.95;1.05;;;10.20;96.70;;;;;;5012805;28;20059;-66
2024/04/06 00:36:56;;;;;;;2.20;1.25;;;10.20;96.90;;;;;;5019896;28;20060;-66
2024/04/06 00:39:22;;;;;;;3.72;1.45;;;10.30;97.20;;;;;;5011576;28;20152;-67
2024/04/06 00:41:47;;;;;;;3.10;1.30;;;10.20;97.20;;;;;;5013773;28;20098;-66
2024/04/06 00:44:14;;;;;;;2.80;1.80;;;10.20;97.60;;;;;;5009743;28;20052;-66
2024/04/06 00:46:39;;;;;;;3.58;1.25;;;10.30;97.70;;;;;;5016265;28;20430;-66
2024/04/06 00:49:05;;;;;;;4.03;2.03;;;10.30;97.60;;;;;;5016362;28;20116;-66
2024/04/06 00:51:31;;;;;;;2.55;1.65;;;10.30;97.70;;;;;;5017589;28;20041;-67
2024/04/06 00:53:56;;;;;;;3.92;2.00;;;10.30;98.20;;;;;;5013413;28;20040;-66
2024/04/06 00:56:22;;;;;;;3.25;1.77;;;10.30;97.90;;;;;;5013939;28;20045;-66
2024/04/06 00:58:47;;;;;;;3.25;1.95;;;10.30;98.00;;;;;;5013934;28;20056;-65
2024/04/06 01:01:13;;;;;;;3.80;1.88;;;10.40;98.10;;;;;;5018678;28;20422;-67
2024/04/06 01:03:39;;;;;;;4.57;1.90;;;10.40;98.20;;;;;;5013474;28;20091;-66
2024/04/06 01:06:04;;;;;;;3.05;1.77;;;10.40;98.20;;;;;;5019672;28;20033;-66
2024/04/06 01:08:32;;;;;;;3.85;1.95;;;10.30;98.20;;;;;;5021131;28;20069;-66
2024/04/06 01:10:57;;;;;;;5.03;1.70;;;10.40;98.30;;;;;;5016461;28;20470;-67
2024/04/06 01:13:23;;;;;;;4.97;1.95;;;10.30;98.40;;;;;;5016865;28;20088;-66
2024/04/06 01:15:48;;;;;;;3.58;1.90;;;10.50;98.30;;;;;;5014107;28;20034;-66
2024/04/06 01:18:14;;;;;;;4.85;2.20;;;10.60;98.10;;;;;;5021471;28;20021;-66
2024/04/06 01:20:43;;;;;;;3.63;2.10;;;10.60;97.90;;;;;;5011895;28;20114;-67
2024/04/06 01:23:11;;;;;;;4.03;2.00;;;10.60;97.90;;;;;;5021699;28;20021;-66
2024/04/06 01:25:37;;;;;;;5.15;2.25;;;10.80;97.70;;;;;;5014603;28;20219;-66
2024/04/06 01:28:03;;;;;;;3.10;1.92;;;10.80;97.50;;;;;;5012679;28;20033;-66
2024/04/06 01:30:28;;;;;;;4.18;2.15;;;10.80;97.50;;;;;;5012736;28;20077;-66
2024/04/06 01:32:54;;;;;;;3.80;2.05;;;10.80;97.40;;;;;;5020677;28;20057;-66
2024/04/06 01:35:19;;;;;;;3.40;1.60;;;10.70;97.50;;;;;;5014341;28;20376;-66
2024/04/06 01:37:45;;;;;;;3.05;1.58;;;10.80;97.60;;;;;;5015445;28;20130;-67
2024/04/06 01:40:11;;;;;;;4.25;1.73;;;10.80;97.50;;;;;;5013206;28;20045;-67
2024/04/06 01:42:37;;;;;;;3.33;1.75;;;10.70;97.40;;;;;;5018596;28;20045;-66
2024/04/06 01:45:03;;;;;;;2.97;1.65;;;10.70;97.50;;;;;;5014749;28;20029;-66
2024/04/06 01:47:29;;;;;;;3.50;1.70;;;10.80;97.30;;;;;;5014400;28;20403;-66
2024/04/06 01:49:55;;;;;;;3.00;1.60;;;10.80;97.50;;;;;;5015332;28;20093;-66
2024/04/06 01:52:21;;;;;;;8.65;1.90;;;10.90;97.30;;;;;;5015096;28;20102;-67
2024/04/06 01:54:46;;;;;;;3.78;1.30;;;10.90;96.90;;;;;;5015675;28;20051;-66
2024/04/06 01:57:12;;;;;;;2.70;1.50;;;10.90;96.90;;;;;;5010778;28;20457;-67
2024/04/06 01:59:39;;;;;;;2.35;1.30;;;10.80;97.00;;;;;;5018988;28;20141;-66
2024/04/06 02:02:06;;;;;;;5.63;1.58;;;10.80;96.60;;;;;;5012027;28;20053;-66
2024/04/06 02:04:31;;;;;;;4.32;1.50;;;10.80;96.80;;;;;;5018533;28;20167;-67
2024/04/06 02:06:57;;;;;;;3.17;1.63;;;10.90;96.80;;;;;;5014488;28;20141;-67
2024/04/06 02:09:22;;;;;;;2.83;1.60;;;10.90;96.50;;;;;;5011379;28;20805;-67
2024/04/06 02:11:48;;;;;;;4.60;2.58;;;11.00;96.40;;;;;;5012057;28;20110;-67
2024/04/06 02:14:13;;;;;;;2.40;1.67;;;11.00;96.10;;;;;;5017767;28;20041;-67
2024/04/06 02:16:39;;;;;;;3.95;1.73;;;11.10;95.80;;;;;;5013850;28;20025;-66
2024/04/06 02:19:04;;;;;;;2.95;1.98;;;11.10;95.60;;;;;;5014641;28;20244;-67
2024/04/06 02:21:29;;;;;;;1.85;1.13;;;11.10;95.90;;;;;;5012257;28;20470;-67
2024/04/06 02:23:55;;;;;;;2.35;1.33;;;11.00;95.90;;;;;;5019662;28;20038;-66
2024/04/06 02:26:21;;;;;;;4.72;1.58;;;11.00;95.80;;;;;;5019129;28;20037;-67
2024/04/06 02:28:46;;;;;;;3.78;1.42;;;10.90;96.00;;;;;;5019198;28;20034;-66
2024/04/06 02:31:11;;;;;;;3.17;1.58;;;10.90;95.90;;;;;;5017541;28;20053;-66
2024/04/06 02:33:37;;;;;;;2.08;1.25;;;11.00;95.90;;;;;;5019974;28;20157;-67
2024/04/06 02:36:04;;;;;;;2.15;1.40;;;11.00;95.90;;;;;;5020596;28;20030;-67
2024/04/06 02:38:30;;;;;;;3.67;1.48;;;10.80;95.90;;;;;;5022312;28;20026;-67
2024/04/06 02:40:55;;;;;;;4.25;1.20;;;10.80;96.20;;;;;;5019336;28;20041;-67
2024/04/06 02:43:21;;;;;;;2.17;1.10;;;10.80;96.30;;;;;;5021373;28;20129;-67
2024/04/06 02:45:47;;;;;;;1.88;1.10;;;10.70;96.20;;;;;;5018420;28;20029;-66
2024/04/06 02:48:12;;;;;;;3.45;1.23;;;10.70;96.30;;;;;;5020277;28;20441;-68
2024/04/06 02:50:38;;;;;;;5.43;1.42;;;10.70;96.40;;;;;;5018913;28;20052;-67
2024/04/06 02:53:04;;;;;;;1.48;1.15;;;10.70;96.10;;;;;;5023634;28;20075;-66
2024/04/06 02:55:29;;;;;;;2.35;1.23;;;10.60;96.50;;;;;;5021294;28;20045;-67
2024/04/06 02:57:55;;;;;;;3.10;1.50;;;10.50;96.60;;;;;;5020060;28;20454;-66
2024/04/06 03:00:20;;;;;;;2.67;1.25;;;10.50;96.80;;;;;;5015279;28;20030;-67
2024/04/06 03:02:46;;;;;;;3.63;1.20;;;10.50;96.90;;;;;;5016289;28;20475;-67
2024/04/06 03:05:11;;;;;;;2.97;1.00;;;10.40;97.00;;;;;;5016578;28;21553;-66
2024/04/06 03:07:37;;;;;;;2.45;1.10;;;10.40;96.80;;;;;;5017317;28;20177;-66
2024/04/06 03:10:04;;;;;;;3.33;1.52;;;10.30;96.90;;;;;;5010817;28;20121;-66
2024/04/06 03:12:30;;;;;;;3.60;1.00;;;10.30;97.10;;;;;;5017004;28;20036;-67
2024/04/06 03:14:55;;;;;;;2.22;0.98;;;10.20;97.30;;;;;;5019987;28;20109;-67
2024/04/06 03:17:20;;;;;;;3.38;0.90;;;10.30;97.20;;;;;;5019943;28;20048;-67
2024/04/06 03:19:46;;;;;;;1.77;1.10;;;10.30;97.30;;;;;;5017924;28;20454;-67
2024/04/06 03:22:12;;;;;;;2.38;0.88;;;10.20;97.30;;;;;;5019299;28;20033;-67
2024/04/06 03:24:38;;;;;;;2.00;1.02;;;10.10;97.40;;;;;;5013716;28;20470;-67
2024/04/06 03:27:04;;;;;;;2.10;0.85;;;10.10;97.60;;;;;;5015079;28;20029;-67
2024/04/06 03:29:30;;;;;;;2.33;1.13;;;10.10;97.60;;;;;;5012615;28;20172;-66
2024/04/06 03:31:55;;;;;;;5.03;1.20;;;10.10;97.70;;;;;;5017459;28;20450;-67
2024/04/06 03:34:21;;;;;;;2.95;1.65;;;10.00;97.70;;;;;;5012767;28;20052;-66
2024/04/06 03:36:46;;;;;;;3.72;1.50;;;10.00;97.60;;;;;;5018464;28;20096;-66
2024/04/06 03:39:12;;;;;;;5.68;1.33;;;9.80;97.70;;;;;;5013139;28;20105;-67
2024/04/06 03:41:38;;;;;;;1.35;0.90;;;9.70;97.90;;;;;;5014570;28;20182;-67
2024/04/06 03:44:03;;;;;;;3.63;1.20;;;9.50;98.00;;;;;;5016319;28;20034;-67
2024/04/06 03:46:29;;;;;;;2.38;1.20;;;9.40;98.20;;;;;;5022039;28;20400;-66
2024/04/06 03:48:55;;;;;;;3.33;0.98;;;9.30;98.40;;;;;;5017214;28;20155;-66
2024/04/06 03:51:21;;;;;;;2.75;1.08;;;9.20;98.70;;;;;;5022316;28;20029;-67
2024/04/06 03:53:47;;;;;;;1.42;0.95;;;9.20;98.80;;;;;;5019353;28;20240;-67
2024/04/06 03:56:12;;;;;;;3.17;1.10;;;9.10;98.90;;;;;;5015072;28;20226;-66
2024/04/06 03:58:38;;;;;;;3.67;1.25;;;9.00;99.00;;;;;;5020170;28;20132;-66
2024/04/06 04:01:04;;;;;;;1.27;1.10;;;9.00;99.20;;;;;;5013632;28;20026;-67
2024/04/06 04:03:29;;;;;;;1.00;0.80;;;9.00;99.40;;;;;;5018331;28;20381;-66
2024/04/06 04:05:55;;;;;;;3.30;1.17;;;9.00;99.40;;;;;;5022758;28;20045;-66
2024/04/06 04:08:21;;;;;;;6.00;1.60;;;9.00;99.60;;;;;;5021970;28;20107;-66
2024/04/06 04:10:47;;;;;;;2.78;1.20;;;9.00;99.60;;;;;;5010692;28;20037;-67
2024/04/06 04:13:12;;;;;;;3.10;1.45;;;9.00;99.80;;;;;;5011522;28;20036;-66
2024/04/06 04:15:41;;;;;;;1.98;1.05;;;9.00;99.90;;;;;;5015427;28;20120;-67
2024/04/06 04:18:08;;;;;;;2.53;1.20;;;9.10;99.90;;;;;;5019405;28;20041;-66
2024/04/06 04:20:34;;;;;;;2.47;1.10;;;9.10;99.90;;;;;;5018533;28;20426;-66
2024/04/06 04:23:00;;;;;;;1.77;1.20;;;9.10;99.90;;;;;;5015224;28;20112;-66
2024/04/06 04:25:28;;;;;;;1.88;1.00;;;9.00;99.90;;;;;;5018294;28;20093;-66
2024/04/06 04:27:54;;;;;;;2.47;1.17;;;9.00;99.90;;;;;;5014973;28;20404;-67
2024/04/06 04:30:20;;;;;;;2.05;1.00;;;9.00;99.90;;;;;;5019446;28;20109;-66
2024/04/06 04:32:45;;;;;;;2.58;1.60;;;9.10;99.90;;;;;;5016528;28;20481;-66
2024/04/06 04:35:10;;;;;;;2.92;1.20;;;9.30;99.90;;;;;;5016080;28;20396;-66
2024/04/06 04:37:36;;;;;;;4.70;1.33;;;9.20;99.90;;;;;;5017623;28;20079;-66
2024/04/06 04:40:01;;;;;;;3.00;1.55;;;9.30;99.90;;;;;;5021030;28;20422;-66
2024/04/06 04:42:27;;;;;;;2.15;1.20;;;9.30;99.90;;;;;;5016304;28;20157;-66
2024/04/06 04:44:54;;;;;;;3.33;1.30;;;9.30;99.90;;;;;;5016909;28;20025;-66
2024/04/06 04:47:19;;;;;;;2.50;1.52;;;9.20;99.90;;;;;;5020927;28;20033;-66
2024/04/06 04:49:45;;;;;;;2.10;1.30;;;9.30;99.90;;;;;;5016937;28;20096;-67
2024/04/06 04:52:10;;;;;;;1.98;1.25;;;9.30;99.90;;;;;;5022959;28;20132;-66
2024/04/06 04:54:36;;;;;;;2.25;1.10;;;9.20;99.90;;;;;;5017503;28;20049;-67
2024/04/06 04:57:01;;;;;;;3.40;1.90;;;9.20;99.90;;;;;;5017119;28;20457;-66
2024/04/06 04:59:27;;;;;;;2.95;1.55;;;9.20;99.90;;;;;;5012589;28;20117;-66
2024/04/06 05:01:52;;;;;;;3.72;1.50;;;9.20;99.90;;;;;;5016240;28;20092;-66
2024/04/06 05:04:18;;;;;;;3.35;1.58;;;9.20;99.90;;;;;;5019080;28;20127;-66
2024/04/06 05:06:43;;;;;;;4.03;1.83;;;9.20;99.90;;;;;;5020298;28;20427;-67
2024/04/06 05:09:10;;;;;;;2.63;1.58;;;9.30;99.90;;;;;;5019465;28;20129;-67
2024/04/06 05:11:35;;;;;;;3.05;1.80;;;9.50;99.90;;;;;;5013142;28;20588;-66
2024/04/06 05:14:01;;;;;;;2.22;1.40;;;9.60;99.90;;;;;;5018497;28;20128;-67
2024/04/06 05:16:26;;;;;;;2.90;1.65;;;9.70;99.90;;;;;;5018931;28;20155;-66
2024/04/06 05:18:52;;;;;;;3.88;2.05;;;9.80;99.90;;;;;;5019153;28;20038;-67
2024/04/06 05:21:17;;;;;;;4.20;2.22;;;9.80;99.90;;;;;;5014613;28;20040;-66
2024/04/06 05:23:43;;;;;;;4.13;2.20;;;9.90;99.90;;;;;;5018583;28;20151;-66
2024/04/06 05:26:08;;;;;;;4.85;2.47;;;9.90;99.90;;;;;;5014242;28;20029;-66
2024/04/06 05:28:34;;;;;;;3.13;1.85;;;10.00;99.90;;;;;;5022305;28;20030;-67
2024/04/06 05:30:59;;;;;;;4.05;2.00;;;10.00;99.90;;;;;;5018343;28;20055;-66
2024/04/06 05:33:25;;;;;;;3.40;1.85;;;10.10;99.90;;;;;;5019689;28;20037;-66
2024/04/06 05:35:51;;;;;;;3.85;2.05;;;10.10;99.90;;;;;;5012288;28;20134;-66
2024/04/06 05:38:17;;;;;;;4.47;2.40;;;10.20;99.90;;;;;;5012604;28;20522;-66
2024/04/06 05:40:44;;;;;;;4.35;2.33;;;10.20;99.90;;;;;;5032590;28;20038;-67
2024/04/06 05:43:11;;;;;;;2.92;2.08;;;10.30;99.90;;;;;;5018115;28;20454;-65
2024/04/06 05:45:37;;;;;;;5.00;2.70;;;10.30;99.90;;;;;;5015700;28;20124;-66
2024/04/06 05:48:03;;;;;;;5.40;3.10;;;10.40;99.90;;;;;;5019653;28;20367;-66
2024/04/06 05:50:44;;;;;;;4.75;2.45;;;10.50;99.90;;;;;;5024368;28;20447;-66
2024/04/06 05:53:10;;;;;;;5.15;3.10;;;10.60;99.90;;;;;;5035380;28;20116;-66
2024/04/06 05:55:35;;;;;;;6.90;3.13;;;10.60;99.90;;;;;;5016211;28;20382;-66
2024/04/06 05:58:01;;;;;;;5.40;2.88;;;10.70;99.90;;;;;;5013839;28;20040;-66
2024/04/06 06:00:29;;;;;;;6.60;3.30;;;10.80;99.90;;;;;;5019872;28;20024;-67
2024/04/06 06:02:55;;;;;;;5.80;2.85;;;11.00;99.90;;;;;;5011500;28;20053;-67
2024/04/06 06:05:21;;;;;;;5.70;2.90;;;11.10;99.90;;;;;;5016069;28;20088;-68
2024/04/06 06:07:47;;;;;;;4.25;2.75;;;11.10;99.80;;;;;;5014365;28;20119;-67
2024/04/06 06:10:13;;;;;;;8.52;3.28;;;11.20;99.70;;;;;;5023192;28;20033;-67
2024/04/06 06:12:38;;;;;;;4.65;2.67;;;11.30;99.70;;;;;;5010759;28;20038;-68
2024/04/06 06:15:04;;;;;;;7.35;3.65;;;11.30;99.60;;;;;;5018736;28;20033;-67
2024/04/06 06:17:30;;;;;;;6.18;2.55;;;11.40;99.60;;;;;;5008708;28;20472;-67
2024/04/06 06:19:55;;;;;;;6.47;2.88;;;11.50;99.50;;;;;;5016239;28;20089;-67
2024/04/06 06:22:22;;;;;;;6.53;3.22;;;11.50;99.40;;;;;;5016627;28;20041;-67
2024/04/06 06:24:48;;;;;;;5.10;2.50;;;11.60;99.30;;;;;;5014274;28;20017;-67
2024/04/06 06:27:14;;;;;;;5.63;3.25;;;11.80;99.20;;;;;;5006304;28;20060;-67
2024/04/06 06:29:39;;;;;;;6.88;3.38;;;11.80;99.10;;;;;;5007360;28;20074;-67
2024/04/06 06:32:05;;;;;;;5.03;3.05;;;11.90;98.80;;;;;;5007760;28;20103;-67
2024/04/06 06:34:30;;;;;;;6.57;2.95;;;11.90;98.60;;;;;;5020199;28;20163;-67
2024/04/06 06:36:56;;;;;;;6.72;2.90;;;12.00;98.50;;;;;;5007824;28;20030;-67
2024/04/06 06:39:21;;;;;;;4.88;2.65;;;12.10;98.30;;;;;;5016399;28;20036;-67
2024/04/06 06:41:47;;;;;;;5.00;2.30;;;12.10;98.10;;;;;;5013658;28;20497;-67
2024/04/06 06:44:13;;;;;;;5.43;2.95;;;12.10;98.10;;;;;;5009370;28;20036;-67
2024/04/06 06:46:39;;;;;;;4.10;2.53;;;12.10;98.00;;;;;;5010847;28;20030;-67
2024/04/06 06:49:04;;;;;;;6.05;2.45;;;12.30;97.90;;;;;;5014042;28;20034;-68
2024/04/06 06:51:30;;;;;;;3.42;2.08;;;12.30;97.70;;;;;;5019147;28;20320;-67
2024/04/06 06:53:55;;;;;;;3.58;2.05;;;12.30;97.60;;;;;;5015660;28;20041;-67
2024/04/06 06:56:22;;;;;;;3.22;2.17;;;12.40;97.70;;;;;;5012253;28;20497;-67
2024/04/06 06:58:48;;;;;;;4.45;2.22;;;12.40;97.50;;;;;;5009416;28;20041;-67
2024/04/06 07:01:14;;;;;;;4.28;2.05;;;12.50;97.40;;;;;;5011357;28;20056;-66
2024/04/06 07:03:39;;;;;;;3.40;2.00;;;12.50;97.40;;;;;;5014054;28;20128;-66
2024/04/06 07:06:07;;;;;;;5.18;2.10;;;12.50;97.20;;;;;;5021282;28;20064;-67
2024/04/06 07:08:33;;;;;;;4.90;2.33;;;12.60;97.30;;;;;;5012963;28;20060;-67
2024/04/06 07:11:02;;;;;;;4.68;2.10;;;12.60;97.30;;;;;;5015538;28;20473;-67
2024/04/06 07:13:28;;;;;;;4.15;2.05;;;12.60;97.20;;;;;;5011100;28;20060;-67
2024/04/06 07:16:08;;;;;;;4.90;1.92;;;12.70;97.40;;;;;;5015122;28;20033;-67
2024/04/06 07:18:38;;;;;;;4.82;2.22;;;12.70;97.10;;;;;;5016642;28;20162;-67
2024/04/06 07:21:04;;;;;;;5.05;2.05;;;12.90;97.20;;;;;;5014666;28;20038;-67
2024/04/06 07:23:30;;;;;;;3.08;1.60;;;13.10;97.20;;;;;;5013199;28;20458;-67
2024/04/06 07:25:55;;;;;;;4.53;2.25;;;13.20;96.80;;;;;;5026890;28;20107;-66
2024/04/06 07:28:21;;;;;;;2.92;1.67;;;13.30;96.30;;;;;;5014227;28;20086;-67
2024/04/06 07:30:47;;;;;;;3.60;1.85;;;13.30;96.40;;;;;;5013040;28;20184;-66
2024/04/06 07:33:13;;;;;;;3.05;1.65;;;13.30;96.10;;;;;;5022752;28;20204;-67
2024/04/06 07:35:38;;;;;;;2.63;1.50;;;13.50;96.00;;;;;;5014922;28;20138;-67
2024/04/06 07:38:04;;;;;;;4.30;1.55;;;13.50;95.90;;;;;;5017943;28;20033;-67
2024/04/06 07:40:30;;;;;;;3.70;1.33;;;13.60;95.70;;;;;;5023888;28;20449;-67
2024/04/06 07:42:56;;;;;;;2.53;1.38;;;13.60;95.80;;;;;;5020285;28;20053;-68
2024/04/06 07:45:22;;;;;;;2.38;1.15;;;13.80;95.50;;;;;;5015806;28;20069;-66
2024/04/06 07:47:48;;;;;;;3.55;1.63;;;13.80;95.40;;;;;;5015226;28;20036;-67
2024/04/06 07:50:14;;;;;;;4.10;1.48;;;13.90;94.90;;;;;;5015034;28;20022;-67
2024/04/06 07:52:40;;;;;;;3.40;1.58;;;14.20;95.20;;;;;;5012998;28;20042;-67
2024/04/06 07:55:05;;;;;;;2.60;1.60;;;14.40;94.50;;;;;;5015982;28;20033;-67
2024/04/06 07:57:31;;;;;;;3.28;1.40;;;14.40;93.60;;;;;;5019591;28;20441;-68
2024/04/06 07:59:57;;;;;;;1.73;1.17;;;14.60;93.60;;;;;;5018999;28;20057;-67
2024/04/06 08:02:22;;;;;;;2.85;1.52;;;14.90;93.90;;;;;;5038762;28;20111;-67
2024/04/06 08:04:55;;;;;;;3.47;1.40;;;15.10;93.00;;;;;;5019327;28;20061;-67
2024/04/06 08:07:21;;;;;;;4.45;1.70;;;15.20;92.00;;;;;;5016866;28;20104;-67
2024/04/06 08:09:47;;;;;;;3.95;1.58;;;15.40;91.90;;;;;;5013698;28;20033;-67
2024/04/06 08:12:13;;;;;;;3.85;1.40;;;15.40;91.70;;;;;;5020105;28;20438;-68
2024/04/06 08:14:39;;;;;;;2.90;1.45;;;15.40;91.70;;;;;;5019945;28;20501;-67
2024/04/06 08:17:04;;;;;;;2.92;1.50;;;15.50;91.90;;;;;;5022244;28;20029;-67
2024/04/06 08:19:30;;;;;;;3.75;1.55;;;15.50;90.90;;;;;;5011341;28;20140;-68
2024/04/06 08:21:56;;;;;;;4.68;1.77;;;15.70;91.70;;;;;;5014679;28;20132;-67
2024/04/06 08:24:21;;;;;;;4.05;1.70;;;15.80;91.10;;;;;;5021683;28;20037;-67
2024/04/06 08:26:47;;;;;;;3.20;1.60;;;15.90;90.70;;;;;;5011934;28;20034;-67
2024/04/06 08:29:12;;;;;;;4.57;2.10;;;15.80;90.80;;;;;;5012229;28;20059;-68
2024/04/06 08:31:38;;;;;;;4.30;2.00;;;15.60;90.00;;;;;;5011359;28;20376;-67
2024/04/06 08:34:04;;;;;;;2.53;1.55;;;15.60;90.30;;;;;;5013743;28;20076;-67
2024/04/06 08:36:29;;;;;;;3.45;1.50;;;15.80;91.30;;;;;;5016158;28;20026;-67
2024/04/06 08:38:55;;;;;;;4.65;1.90;;;15.90;91.50;;;;;;5013044;28;20469;-67
2024/04/06 08:41:23;;;;;;;2.97;1.45;;;15.90;90.40;;;;;;5016355;28;20430;-68
2024/04/06 08:43:55;;;;;;;5.07;1.73;;;16.00;91.10;;;;;;5013899;28;20508;-67
2024/04/06 08:46:23;;;;;;;3.35;2.00;;;16.30;91.60;;;;;;5014680;28;20453;-67
2024/04/06 08:48:49;;;;;;;2.90;1.40;;;16.20;90.40;;;;;;5009641;28;20454;-69
2024/04/06 08:51:17;;;;;;;4.45;1.50;;;16.50;90.10;;;;;;5013689;28;20034;-68
2024/04/06 08:53:43;;;;;;;2.85;1.30;;;16.60;89.30;;;;;;5017438;28;20120;-67
2024/04/06 08:56:09;;;;;;;3.10;1.55;;;16.40;88.30;;;;;;5013257;28;20049;-68
2024/04/06 08:58:35;;;;;;;3.08;1.60;;;16.80;88.90;;;;;;5009624;28;20355;-68
2024/04/06 09:01:04;;;;;;;2.28;1.48;;;16.80;87.90;;;;;;5011596;28;20124;-67
2024/04/06 09:03:31;;;;;;;3.20;1.63;;;17.20;88.50;;;;;;5017180;28;20379;-68
2024/04/06 09:05:57;;;;;;;2.85;1.27;;;17.30;87.50;;;;;;5016175;28;20025;-68
2024/04/06 09:08:23;;;;;;;2.72;1.40;;;17.70;88.20;;;;;;5019176;28;20029;-67
2024/04/06 09:10:54;;;;;;;4.75;1.50;;;17.70;86.00;;;;;;5016332;28;20049;-67
2024/04/06 09:13:20;;;;;;;2.15;1.40;;;17.80;85.10;;;;;;5017131;28;20051;-67
2024/04/06 09:15:46;;;;;;;4.95;1.08;;;17.90;85.60;;;;;;5016059;28;20338;-67
2024/04/06 09:18:12;;;;;;;3.05;1.38;;;17.90;85.10;;;;;;5022978;28;20048;-68
2024/04/06 09:20:37;;;;;;;3.10;1.40;;;18.30;83.60;;;;;;5015907;28;20042;-66
2024/04/06 09:23:03;;;;;;;1.50;1.00;;;18.20;83.80;;;;;;5015018;28;20112;-68
2024/04/06 09:25:29;;;;;;;1.65;0.85;;;18.40;84.40;;;;;;5019504;28;20454;-68
2024/04/06 09:27:55;;;;;;;1.33;0.73;;;18.60;85.10;;;;;;5010271;28;20596;-67
2024/04/06 09:30:32;;;;;;;3.15;1.52;;;18.50;83.10;;;;;;5019788;28;20052;-67
2024/04/06 09:32:58;;;;;;;2.15;1.10;;;17.90;83.10;;;;;;5013017;28;20052;-67
2024/04/06 09:35:25;;;;;;;2.83;1.20;;;17.60;84.40;;;;;;5012054;28;20033;-68
2024/04/06 09:37:51;;;;;;;2.67;1.00;;;17.40;84.90;;;;;;5009858;28;20086;-68
2024/04/06 09:40:19;;;;;;;1.65;0.90;;;17.40;85.70;;;;;;5015131;28;20523;-69
2024/04/06 09:42:44;;;;;;;4.32;0.90;;;18.00;85.40;;;;;;5037157;28;20076;-67
2024/04/06 09:45:11;;;;;;;1.42;0.80;;;18.40;84.20;;;;;;5017917;28;20119;-68
2024/04/06 09:47:38;;;;;;;1.52;0.80;;;18.50;83.30;;;;;;5016450;28;20034;-65
2024/04/06 09:50:04;;;;;;;0.88;0.50;;;18.70;82.20;;;;;;5007117;28;20030;-64
2024/04/06 09:52:30;;;;;;;3.67;0.77;;;18.90;81.70;;;;;;5010355;28;20045;-67
2024/04/06 09:54:56;;;;;;;1.17;0.70;;;19.00;80.50;;;;;;5014295;28;20064;-66
2024/04/06 09:57:21;;;;;;;1.45;0.40;;;19.30;80.50;;;;;;5016215;28;20021;-66
2024/04/06 09:59:47;;;;;;;1.83;0.63;;;19.30;79.00;;;;;;5019167;28;20048;-65
2024/04/06 10:02:23;;;;;;;0.85;0.70;;;19.10;79.40;;;;;;5017066;28;21900;-65
2024/04/06 10:05:00;;;;;;;1.52;0.82;;;19.20;80.30;;;;;;5027173;28;20050;-66
2024/04/06 10:07:28;;;;;;;1.20;0.73;;;19.50;80.70;;;;;;5011601;28;20055;-67
2024/04/06 10:10:05;;;;;;;2.13;1.10;;;19.50;80.50;;;;;;5015457;28;20484;-67
2024/04/06 10:12:41;;;;;;;3.85;1.25;;;19.50;78.00;;;;;;5020229;28;20048;-68
2024/04/06 10:15:10;;;;;;;0.63;0.52;;;19.60;79.60;;;;;;5024707;28;20034;-66
2024/04/06 10:17:47;;;;;;;0.75;0.60;;;19.70;78.40;;;;;;5024389;28;20133;-65
2024/04/06 10:20:14;;;;;;;1.17;0.47;;;19.70;79.50;;;;;;5019897;28;20445;-68
2024/04/06 10:22:49;;;;;;;0.55;0.40;;;19.60;77.70;;;;;;5017993;28;20033;-68
2024/04/06 10:25:17;;;;;;;0.85;0.50;;;19.60;77.00;;;;;;5020857;28;20038;-66
2024/04/06 10:27:43;;;;;;;1.50;0.60;;;19.50;76.20;;;;;;5005207;28;20045;-68
2024/04/06 10:30:08;;;;;;;1.30;0.25;;;19.30;76.80;;;;;;5015547;28;20367;-65
2024/04/06 10:32:34;;;;;;;0.98;0.40;;;19.40;77.30;;;;;;5022962;28;20550;-68
2024/04/06 10:35:01;;;;;;;0.57;0.40;;;19.50;76.30;;;;;;5016614;28;20097;-67
2024/04/06 10:37:26;;;;;;;0.52;0.32;;;19.80;76.80;;;;;;5019300;28;20162;-67
2024/04/06 10:39:52;;;;;;;0.82;0.30;;;20.10;74.20;;;;;;5015443;28;20119;-67
2024/04/06 10:42:17;;;;;;;0.73;0.30;;;20.40;73.50;;;;;;5017414;28;20124;-68
2024/04/06 10:44:43;;;;;;;0.73;0.40;;;20.50;75.40;;;;;;5014292;28;20117;-65
2024/04/06 10:47:09;;;;;;;0.57;0.30;;;20.70;73.50;;;;;;5011364;28;20057;-66
2024/04/06 10:49:34;;;;;;;1.90;0.95;;;20.50;72.10;;;;;;5019554;28;20125;-65
2024/04/06 10:52:00;;;;;;;1.27;0.43;;;20.60;73.20;;;;;;5016097;28;20037;-67
2024/04/06 10:54:26;;;;;;;1.10;0.50;;;21.00;73.20;;;;;;5023296;28;20042;-64
2024/04/06 10:56:53;;;;;;;0.40;0.40;;;20.60;71.50;;;;;;5019931;28;20063;-65
2024/04/06 10:59:18;;;;;;;0.57;0.50;;;20.50;72.00;;;;;;5018015;28;20418;-66
2024/04/06 11:01:44;;;;;;;0.65;0.40;;;20.60;70.80;;;;;;5023220;28;20128;-66
2024/04/06 11:04:12;;;;;;;0.30;0.10;;;20.60;71.00;;;;;;5026876;28;20045;-67
2024/04/06 11:06:38;;;;;;;0.50;0.35;;;20.60;69.50;;;;;;5030049;28;20033;-67
2024/04/06 11:09:06;;;;;;;1.55;0.55;;;20.50;71.70;;;;;;5021892;28;20131;-66
2024/04/06 11:11:32;;;;;;;0.50;0.20;;;20.60;71.50;;;;;;5020939;28;20431;-67
2024/04/06 11:13:58;;;;;;;0.22;0.20;;;20.60;71.00;;;;;;5014868;28;20131;-66
2024/04/06 11:16:25;;;;;;;0.57;0.30;;;20.60;72.10;;;;;;5012378;28;20029;-65
2024/04/06 11:18:50;;;;;;;0.35;0.20;;;20.40;71.00;;;;;;5018889;28;20029;-65
2024/04/06 11:21:16;;;;;;;0.22;0.20;;;20.50;71.50;;;;;;5020015;28;20025;-65
2024/04/06 11:23:43;;;;;;;0.52;0.30;;;20.70;73.00;;;;;;5018794;28;20175;-65
2024/04/06 11:26:09;;;;;;;1.10;0.32;;;20.60;72.70;;;;;;5031475;28;20059;-66
2024/04/06 11:28:35;;;;;;;0.30;0.30;;;20.60;72.00;;;;;;5016864;28;20118;-67
2024/04/06 11:31:00;;;;;;;0.47;0.30;;;20.60;72.40;;;;;;5018916;28;20490;-71
2024/04/06 11:33:26;;;;;;;0.50;0.30;;;20.60;71.80;;;;;;5020417;28;20038;-72
2024/04/06 11:35:53;;;;;;;0.82;0.22;;;20.80;71.90;;;;;;5019223;28;20406;-72
2024/04/06 11:38:19;;;;;;;0.20;0.17;;;20.70;71.30;;;;;;5024331;28;20059;-72
2024/04/06 11:40:47;;;;;;;0.52;0.40;;;20.70;70.70;;;;;;5022315;28;20045;-75
2024/04/06 11:43:16;;;;;;;1.15;0.40;;;20.90;70.70;;;;;;5022606;28;20124;-75
2024/04/06 11:45:42;;;;;;;0.70;0.30;;;20.40;72.30;;;;;;5021270;28;20170;-77
2024/04/06 11:48:08;;;;;;;0.93;0.30;;;20.70;72.10;;;;;;5023028;28;20030;-75
2024/04/06 11:50:34;;;;;;;0.30;0.15;;;20.70;71.70;;;;;;5013890;28;20410;-75
2024/04/06 11:52:59;;;;;;;0.43;0.30;;;21.00;71.80;;;;;;5018844;28;20049;-75
2024/04/06 11:55:25;;;;;;;1.35;0.50;;;21.20;70.90;;;;;;5025521;28;20041;-76
2024/04/06 11:57:50;;;;;;;0.22;0.20;;;21.30;69.50;;;;;;5016334;28;20255;-79
2024/04/06 12:00:16;;;;;;;0.30;0.22;;;21.40;69.80;;;;;;5019123;28;20042;-74
2024/04/06 12:02:41;;;;;;;0.65;0.25;;;21.70;69.70;;;;;;5018753;28;20057;-73
2024/04/06 12:05:09;;;;;;;1.15;0.40;;;22.00;68.70;;;;;;5015575;28;20112;-73
2024/04/06 12:07:38;;;;;;;1.15;0.40;;;21.60;68.10;;;;;;5020173;28;20117;-73
2024/04/06 12:10:07;;;;;;;0.85;0.30;;;21.50;69.70;;;;;;5013466;28;20148;-73
2024/04/06 12:12:32;;;;;;;0.70;0.40;;;21.10;69.60;;;;;;5019605;28;20738;-73
2024/04/06 12:14:58;;;;;;;0.77;0.35;;;21.00;69.70;;;;;;5013574;28;20057;-75
2024/04/06 12:17:29;;;;;;;0.82;0.30;;;21.00;69.90;;;;;;5020635;28;20041;-74
2024/04/06 12:19:55;;;;;;;0.45;0.35;;;21.00;69.50;;;;;;5016775;28;20041;-74
2024/04/06 12:22:21;;;;;;;0.50;0.32;;;21.10;69.00;;;;;;5021173;28;20045;-73
2024/04/06 12:24:47;;;;;;;1.10;0.50;;;21.30;67.50;;;;;;5016438;28;20037;-75
2024/04/06 12:27:14;;;;;;;0.95;0.50;;;21.30;67.70;;;;;;5024340;28;20044;-74
2024/04/06 12:29:40;;;;;;;0.40;0.25;;;22.00;68.70;;;;;;5018201;28;20453;-77
2024/04/06 12:32:06;;;;;;;0.13;0.10;;;22.50;65.10;;;;;;5018027;28;20042;-77
2024/04/06 12:34:31;;;;;;;1.33;0.35;;;23.00;66.10;;;;;;5027097;28;20037;-75
2024/04/06 12:37:00;;;;;;;1.95;0.70;;;23.10;63.90;;;;;;5031834;28;20163;-75
2024/04/06 12:39:26;;;;;;;0.65;0.22;;;23.50;61.70;;;;;;5031931;28;20045;-75
2024/04/06 12:41:51;;;;;;;0.57;0.20;;;24.30;58.80;;;;;;5011705;28;20483;-75